sensor_id;sensor_type;location;lat;lon;timestamp;pressure;altitude;pressure_sealevel;temperature;humidity
7026;BME280;3554;42.132;24.786;2023-01-26T00:01:40;99798.34;;;3.48;100.00
7026;BME280;3554;42.132;24.786;2023-01-26T00:04:08;99771.63;;;3.44;100.00
7026;BME280;3554;42.132;24.786;2023-01-26T00:06:36;99687.56;;;2.63;100.00
7026;BME280;3554;42.132;24.786;2023-01-26T00:09:03;99694.28;;;3.02;100.00
7026;BME280;3554;42.132;24.786;2023-01-26T00:11:30;99648.56;;;3.11;100.00
7026;BME280;3554;42.132;24.786;2023-01-26T00:13:58;99612.28;;;3.19;100.00
7026;BME280;3554;42.132;24.786;2023-01-26T00:16:25;99571.94;;;3.00;100.00
7026;BME280;3554;42.132;24.786;2023-01-26T00:18:52;99565.06;;;2.99;100.00
7026;BME280;3554;42.132;24.786;2023-01-26T00:21:20;99542.59;;;3.04;100.00
7026;BME280;3554;42.132;24.786;2023-01-26T00:23:49;99521.09;;;2.96;100.00
7026;BME280;3554;42.132;24.786;2023-01-26T00:26:18;99485.00;;;2.85;100.00
7026;BME280;3554;42.132;24.786;2023-01-26T00:28:45;99464.31;;;2.87;100.00
7026;BME280;3554;42.132;24.786;2023-01-26T00:31:13;99517.69;;;2.92;100.00
7026;BME280;3554;42.132;24.786;2023-01-26T00:33:40;99486.13;;;2.54;100.00
7026;BME280;3554;42.132;24.786;2023-01-26T00:36:08;99526.47;;;2.72;100.00
7026;BME280;3554;42.132;24.786;2023-01-26T00:38:35;99576.31;;;2.92;100.00
7026;BME280;3554;42.132;24.786;2023-01-26T00:41:03;99577.13;;;2.95;100.00
7026;BME280;3554;42.132;24.786;2023-01-26T00:43:30;99553.81;;;3.00;100.00
7026;BME280;3554;42.132;24.786;2023-01-26T00:45:57;99557.31;;;2.94;100.00
7026;BME280;3554;42.132;24.786;2023-01-26T00:48:23;99579.72;;;2.95;100.00
7026;BME280;3554;42.132;24.786;2023-01-26T00:50:50;99566.84;;;2.89;100.00
7026;BME280;3554;42.132;24.786;2023-01-26T00:53:18;99547.03;;;2.87;100.00
7026;BME280;3554;42.132;24.786;2023-01-26T00:55:44;99557.28;;;2.97;100.00
7026;BME280;3554;42.132;24.786;2023-01-26T00:58:13;99553.81;;;3.00;100.00
7026;BME280;3554;42.132;24.786;2023-01-26T01:00:39;99549.69;;;2.75;100.00
7026;BME280;3554;42.132;24.786;2023-01-26T01:03:06;99544.59;;;2.69;100.00
7026;BME280;3554;42.132;24.786;2023-01-26T01:05:33;99515.34;;;2.59;100.00
7026;BME280;3554;42.132;24.786;2023-01-26T01:08:00;99506.72;;;2.63;100.00
7026;BME280;3554;42.132;24.786;2023-01-26T01:10:27;99492.97;;;2.60;100.00
7026;BME280;3554;42.132;24.786;2023-01-26T01:12:54;99462.84;;;2.56;100.00
7026;BME280;3554;42.132;24.786;2023-01-26T01:15:23;99458.56;;;2.52;100.00
7026;BME280;3554;42.132;24.786;2023-01-26T01:17:50;99443.94;;;2.54;100.00
7026;BME280;3554;42.132;24.786;2023-01-26T01:20:17;99431.78;;;2.65;100.00
7026;BME280;3554;42.132;24.786;2023-01-26T01:22:44;99430.84;;;2.75;100.00
7026;BME280;3554;42.132;24.786;2023-01-26T01:25:11;99433.31;;;2.87;100.00
7026;BME280;3554;42.132;24.786;2023-01-26T01:27:38;99436.72;;;2.90;100.00
7026;BME280;3554;42.132;24.786;2023-01-26T01:30:06;99447.91;;;2.91;100.00
7026;BME280;3554;42.132;24.786;2023-01-26T01:32:35;99435.81;;;2.96;100.00
7026;BME280;3554;42.132;24.786;2023-01-26T01:35:04;99451.22;;;3.05;100.00
7026;BME280;3554;42.132;24.786;2023-01-26T01:37:31;99455.44;;;3.16;100.00
7026;BME280;3554;42.132;24.786;2023-01-26T01:39:58;99461.41;;;3.23;100.00
7026;BME280;3554;42.132;24.786;2023-01-26T01:42:25;99466.53;;;3.26;100.00
7026;BME280;3554;42.132;24.786;2023-01-26T01:48:00;99461.34;;;3.27;100.00
7026;BME280;3554;42.132;24.786;2023-01-26T01:50:30;99464.78;;;3.28;100.00
7026;BME280;3554;42.132;24.786;2023-01-26T01:53:00;99469.13;;;3.26;100.00
7026;BME280;3554;42.132;24.786;2023-01-26T01:55:27;99462.22;;;3.26;100.00
7026;BME280;3554;42.132;24.786;2023-01-26T01:57:56;99454.53;;;3.20;100.00
7026;BME280;3554;42.132;24.786;2023-01-26T02:00:25;99435.56;;;3.21;100.00
7026;BME280;3554;42.132;24.786;2023-01-26T02:02:54;99436.81;;;2.83;100.00
7026;BME280;3554;42.132;24.786;2023-01-26T02:05:43;99421.38;;;2.71;100.00
7026;BME280;3554;42.132;24.786;2023-01-26T02:08:13;99394.78;;;2.58;100.00
7026;BME280;3554;42.132;24.786;2023-01-26T02:10:42;99390.34;;;2.77;100.00
7026;BME280;3554;42.132;24.786;2023-01-26T02:13:12;99372.09;;;2.93;100.00
7026;BME280;3554;42.132;24.786;2023-01-26T02:15:39;99311.13;;;2.76;100.00
7026;BME280;3554;42.132;24.786;2023-01-26T02:18:07;99349.50;;;3.09;100.00
7026;BME280;3554;42.132;24.786;2023-01-26T02:20:42;99337.44;;;3.11;100.00
7026;BME280;3554;42.132;24.786;2023-01-26T02:23:19;99340.97;;;3.04;100.00
7026;BME280;3554;42.132;24.786;2023-01-26T02:26:13;99342.53;;;3.15;100.00
7026;BME280;3554;42.132;24.786;2023-01-26T02:28:41;99365.19;;;2.94;100.00
7026;BME280;3554;42.132;24.786;2023-01-26T02:31:10;99369.50;;;2.95;100.00
7026;BME280;3554;42.132;24.786;2023-01-26T02:33:37;99366.09;;;2.90;100.00
7026;BME280;3554;42.132;24.786;2023-01-26T02:36:05;99363.47;;;2.93;100.00
7026;BME280;3554;42.132;24.786;2023-01-26T02:38:38;99352.25;;;2.95;100.00
7026;BME280;3554;42.132;24.786;2023-01-26T02:41:07;99337.59;;;2.96;100.00
7026;BME280;3554;42.132;24.786;2023-01-26T02:43:36;99314.31;;;2.96;100.00
7026;BME280;3554;42.132;24.786;2023-01-26T02:46:02;99306.63;;;2.93;100.00
7026;BME280;3554;42.132;24.786;2023-01-26T02:48:29;99293.66;;;2.96;100.00
7026;BME280;3554;42.132;24.786;2023-01-26T02:51:09;99283.47;;;2.82;100.00
7026;BME280;3554;42.132;24.786;2023-01-26T02:53:36;99256.78;;;2.82;100.00
7026;BME280;3554;42.132;24.786;2023-01-26T02:56:03;99236.84;;;2.91;100.00
7026;BME280;3554;42.132;24.786;2023-01-26T02:58:29;99216.22;;;2.87;100.00
7026;BME280;3554;42.132;24.786;2023-01-26T03:00:57;99193.69;;;2.96;100.00
7026;BME280;3554;42.132;24.786;2023-01-26T03:03:26;99162.72;;;2.95;100.00
7026;BME280;3554;42.132;24.786;2023-01-26T03:06:06;99160.03;;;3.02;100.00
7026;BME280;3554;42.132;24.786;2023-01-26T03:08:34;99142.03;;;2.95;100.00
7026;BME280;3554;42.132;24.786;2023-01-26T03:11:00;99115.53;;;2.81;100.00
7026;BME280;3554;42.132;24.786;2023-01-26T03:13:27;99147.88;;;3.09;100.00
7026;BME280;3554;42.132;24.786;2023-01-26T03:15:54;99133.25;;;3.06;100.00
7026;BME280;3554;42.132;24.786;2023-01-26T03:18:28;99135.78;;;3.11;100.00
7026;BME280;3554;42.132;24.786;2023-01-26T03:21:15;99126.31;;;3.08;100.00
7026;BME280;3554;42.132;24.786;2023-01-26T03:23:59;99126.47;;;2.98;100.00
7026;BME280;3554;42.132;24.786;2023-01-26T03:26:59;99164.22;;;3.08;100.00
7026;BME280;3554;42.132;24.786;2023-01-26T03:29:43;99178.84;;;3.12;100.00
7026;BME280;3554;42.132;24.786;2023-01-26T03:32:10;99195.16;;;3.15;100.00
7026;BME280;3554;42.132;24.786;2023-01-26T03:34:38;99204.75;;;3.09;100.00
7026;BME280;3554;42.132;24.786;2023-01-26T03:37:05;99203.84;;;3.13;100.00
7026;BME280;3554;42.132;24.786;2023-01-26T03:39:32;99211.72;;;3.01;100.00
7026;BME280;3554;42.132;24.786;2023-01-26T03:42:17;99197.97;;;3.00;100.00
7026;BME280;3554;42.132;24.786;2023-01-26T03:45:01;99205.72;;;3.00;100.00
7026;BME280;3554;42.132;24.786;2023-01-26T03:47:45;99204.03;;;2.96;100.00
7026;BME280;3554;42.132;24.786;2023-01-26T03:50:31;99204.84;;;3.00;100.00
7026;BME280;3554;42.132;24.786;2023-01-26T03:53:16;99163.78;;;2.79;100.00
7026;BME280;3554;42.132;24.786;2023-01-26T03:56:01;99202.38;;;2.92;100.00
7026;BME280;3554;42.132;24.786;2023-01-26T03:58:50;99207.53;;;2.95;100.00
7026;BME280;3554;42.132;24.786;2023-01-26T04:01:17;99212.81;;;2.83;100.00
7026;BME280;3554;42.132;24.786;2023-01-26T04:03:53;99205.03;;;2.86;100.00
7026;BME280;3554;42.132;24.786;2023-01-26T04:06:40;99178.56;;;2.68;100.00
7026;BME280;3554;42.132;24.786;2023-01-26T04:09:24;99203.34;;;2.84;100.00
7026;BME280;3554;42.132;24.786;2023-01-26T04:11:51;99198.97;;;2.89;100.00
7026;BME280;3554;42.132;24.786;2023-01-26T04:14:18;99205.13;;;2.80;100.00
7026;BME280;3554;42.132;24.786;2023-01-26T04:17:03;99200.63;;;2.94;100.00
7026;BME280;3554;42.132;24.786;2023-01-26T04:19:48;99180.91;;;2.87;100.00
7026;BME280;3554;42.132;24.786;2023-01-26T04:22:35;99146.59;;;2.76;100.00
7026;BME280;3554;42.132;24.786;2023-01-26T04:25:09;99137.09;;;2.78;100.00
7026;BME280;3554;42.132;24.786;2023-01-26T04:27:36;99140.44;;;2.86;100.00
7026;BME280;3554;42.132;24.786;2023-01-26T04:30:04;99141.25;;;2.90;100.00
7026;BME280;3554;42.132;24.786;2023-01-26T04:32:31;99145.53;;;2.91;100.00
7026;BME280;3554;42.132;24.786;2023-01-26T04:34:57;99143.72;;;2.97;100.00
7026;BME280;3554;42.132;24.786;2023-01-26T04:37:24;99143.66;;;3.02;100.00
7026;BME280;3554;42.132;24.786;2023-01-26T04:39:52;99147.88;;;3.07;100.00
7026;BME280;3554;42.132;24.786;2023-01-26T04:42:19;99148.03;;;2.98;100.00
7026;BME280;3554;42.132;24.786;2023-01-26T04:44:48;99134.34;;;2.89;100.00
7026;BME280;3554;42.132;24.786;2023-01-26T04:47:15;99128.50;;;2.76;100.00
7026;BME280;3554;42.132;24.786;2023-01-26T04:49:42;99143.06;;;2.82;100.00
7026;BME280;3554;42.132;24.786;2023-01-26T04:52:09;99141.78;;;2.51;100.00
7026;BME280;3554;42.132;24.786;2023-01-26T04:54:35;99127.03;;;2.57;100.00
7026;BME280;3554;42.132;24.786;2023-01-26T04:57:04;99097.88;;;2.48;100.00
7026;BME280;3554;42.132;24.786;2023-01-26T04:59:31;99108.75;;;2.74;100.00
7026;BME280;3554;42.132;24.786;2023-01-26T05:01:58;99115.81;;;2.58;100.00
7026;BME280;3554;42.132;24.786;2023-01-26T05:04:24;99110.69;;;2.57;100.00
7026;BME280;3554;42.132;24.786;2023-01-26T05:06:51;99096.78;;;2.67;100.00
7026;BME280;3554;42.132;24.786;2023-01-26T05:09:18;99094.19;;;2.67;100.00
7026;BME280;3554;42.132;24.786;2023-01-26T05:11:45;99087.44;;;2.57;100.00
7026;BME280;3554;42.132;24.786;2023-01-26T05:14:13;99077.09;;;2.57;100.00
7026;BME280;3554;42.132;24.786;2023-01-26T05:16:40;99060.75;;;2.58;100.00
7026;BME280;3554;42.132;24.786;2023-01-26T05:19:07;99054.91;;;2.44;100.00
7026;BME280;3554;42.132;24.786;2023-01-26T05:21:34;99029.09;;;2.44;100.00
7026;BME280;3554;42.132;24.786;2023-01-26T05:24:01;99009.91;;;2.61;100.00
7026;BME280;3554;42.132;24.786;2023-01-26T05:26:27;98996.13;;;2.61;100.00
7026;BME280;3554;42.132;24.786;2023-01-26T05:28:54;98984.03;;;2.63;100.00
7026;BME280;3554;42.132;24.786;2023-01-26T05:31:22;98974.84;;;2.45;100.00
7026;BME280;3554;42.132;24.786;2023-01-26T05:33:49;98964.53;;;2.42;100.00
7026;BME280;3554;42.132;24.786;2023-01-26T05:36:16;98952.53;;;2.40;100.00
7026;BME280;3554;42.132;24.786;2023-01-26T05:38:42;98935.06;;;2.55;100.00
7026;BME280;3554;42.132;24.786;2023-01-26T05:41:09;98951.03;;;2.25;100.00
7026;BME280;3554;42.132;24.786;2023-01-26T05:43:36;98923.34;;;2.35;100.00
7026;BME280;3554;42.132;24.786;2023-01-26T05:46:02;98930.16;;;2.39;100.00
7026;BME280;3554;42.132;24.786;2023-01-26T05:48:31;98960.97;;;2.52;100.00
7026;BME280;3554;42.132;24.786;2023-01-26T05:50:57;98974.72;;;2.54;100.00
7026;BME280;3554;42.132;24.786;2023-01-26T05:53:24;98981.66;;;2.48;100.00
7026;BME280;3554;42.132;24.786;2023-01-26T05:55:51;98991.91;;;2.54;100.00
7026;BME280;3554;42.132;24.786;2023-01-26T05:58:17;98990.19;;;2.54;100.00
7026;BME280;3554;42.132;24.786;2023-01-26T06:00:44;98992.97;;;2.41;100.00
7026;BME280;3554;42.132;24.786;2023-01-26T06:03:11;99007.38;;;2.55;100.00
7026;BME280;3554;42.132;24.786;2023-01-26T06:05:39;98999.69;;;2.52;100.00
7026;BME280;3554;42.132;24.786;2023-01-26T06:08:06;98994.06;;;2.23;100.00
7026;BME280;3554;42.132;24.786;2023-01-26T06:10:33;99015.41;;;2.36;100.00
7026;BME280;3554;42.132;24.786;2023-01-26T06:13:00;99002.63;;;2.27;100.00
7026;BME280;3554;42.132;24.786;2023-01-26T06:15:26;98988.78;;;2.32;100.00
7026;BME280;3554;42.132;24.786;2023-01-26T06:17:53;98981.81;;;2.40;100.00
7026;BME280;3554;42.132;24.786;2023-01-26T06:20:20;98971.47;;;2.40;100.00
7026;BME280;3554;42.132;24.786;2023-01-26T06:22:48;98971.34;;;2.48;100.00
7026;BME280;3554;42.132;24.786;2023-01-26T06:25:15;98977.34;;;2.50;100.00
7026;BME280;3554;42.132;24.786;2023-01-26T06:27:42;98978.88;;;2.63;100.00
7026;BME280;3554;42.132;24.786;2023-01-26T06:30:09;98984.09;;;2.60;100.00
7026;BME280;3554;42.132;24.786;2023-01-26T06:32:36;98995.28;;;2.59;100.00
7026;BME280;3554;42.132;24.786;2023-01-26T06:35:04;99013.50;;;2.50;100.00
7026;BME280;3554;42.132;24.786;2023-01-26T06:37:33;99020.34;;;2.52;100.00
7026;BME280;3554;42.132;24.786;2023-01-26T06:40:02;99030.00;;;2.40;100.00
7026;BME280;3554;42.132;24.786;2023-01-26T06:42:28;99020.47;;;2.45;100.00
7026;BME280;3554;42.132;24.786;2023-01-26T06:44:55;99020.53;;;2.40;100.00
7026;BME280;3554;42.132;24.786;2023-01-26T06:47:23;98987.00;;;2.36;100.00
7026;BME280;3554;42.132;24.786;2023-01-26T06:49:50;98986.09;;;2.40;100.00
7026;BME280;3554;42.132;24.786;2023-01-26T06:52:26;98979.84;;;2.56;100.00
7026;BME280;3554;42.132;24.786;2023-01-26T06:57:26;98937.66;;;2.55;100.00
7026;BME280;3554;42.132;24.786;2023-01-26T06:59:52;98936.50;;;2.73;100.00
7026;BME280;3554;42.132;24.786;2023-01-26T07:02:21;98927.16;;;2.66;100.00
7026;BME280;3554;42.132;24.786;2023-01-26T07:04:49;98915.00;;;2.71;100.00
7026;BME280;3554;42.132;24.786;2023-01-26T07:07:16;98901.22;;;2.72;100.00
7026;BME280;3554;42.132;24.786;2023-01-26T07:09:42;98895.97;;;2.76;100.00
7026;BME280;3554;42.132;24.786;2023-01-26T07:12:09;98887.13;;;2.89;100.00
7026;BME280;3554;42.132;24.786;2023-01-26T07:14:37;98880.09;;;2.96;100.00
7026;BME280;3554;42.132;24.786;2023-01-26T07:17:04;98875.94;;;2.89;100.00
7026;BME280;3554;42.132;24.786;2023-01-26T07:19:32;98876.03;;;2.84;100.00
7026;BME280;3554;42.132;24.786;2023-01-26T07:21:58;98875.28;;;2.78;100.00
7026;BME280;3554;42.132;24.786;2023-01-26T07:24:25;98871.72;;;2.83;100.00
7026;BME280;3554;42.132;24.786;2023-01-26T07:26:52;98861.25;;;2.91;100.00
7026;BME280;3554;42.132;24.786;2023-01-26T07:29:19;98862.84;;;2.98;100.00
7026;BME280;3554;42.132;24.786;2023-01-26T07:31:47;98863.94;;;2.85;100.00
7026;BME280;3554;42.132;24.786;2023-01-26T07:34:13;98881.34;;;2.75;100.00
7026;BME280;3554;42.132;24.786;2023-01-26T07:36:40;98890.78;;;2.78;100.00
7026;BME280;3554;42.132;24.786;2023-01-26T07:39:07;98893.41;;;2.75;100.00
7026;BME280;3554;42.132;24.786;2023-01-26T07:41:34;98882.81;;;2.90;100.00
7026;BME280;3554;42.132;24.786;2023-01-26T07:44:01;98878.28;;;3.02;100.00
7026;BME280;3554;42.132;24.786;2023-01-26T07:46:29;98890.31;;;3.03;100.00
7026;BME280;3554;42.132;24.786;2023-01-26T07:48:57;98897.22;;;3.03;100.00
7026;BME280;3554;42.132;24.786;2023-01-26T07:51:24;98884.94;;;3.14;100.00
7026;BME280;3554;42.132;24.786;2023-01-26T07:53:50;98886.84;;;3.04;100.00
7026;BME280;3554;42.132;24.786;2023-01-26T07:56:17;98877.06;;;2.76;100.00
7026;BME280;3554;42.132;24.786;2023-01-26T07:58:48;98849.50;;;2.75;100.00
7026;BME280;3554;42.132;24.786;2023-01-26T08:01:15;98825.91;;;2.47;100.00
7026;BME280;3554;42.132;24.786;2023-01-26T08:03:42;98782.34;;;2.73;100.00
7026;BME280;3554;42.132;24.786;2023-01-26T08:06:11;98739.19;;;2.78;100.00
7026;BME280;3554;42.132;24.786;2023-01-26T08:08:39;98712.28;;;2.90;100.00
7026;BME280;3554;42.132;24.786;2023-01-26T08:11:06;98694.75;;;2.63;100.00
7026;BME280;3554;42.132;24.786;2023-01-26T08:13:33;98669.59;;;2.71;100.00
7026;BME280;3554;42.132;24.786;2023-01-26T08:16:18;98631.25;;;2.51;100.00
7026;BME280;3554;42.132;24.786;2023-01-26T08:18:46;98583.00;;;2.53;100.00
7026;BME280;3554;42.132;24.786;2023-01-26T08:21:15;98536.44;;;2.58;100.00
7026;BME280;3554;42.132;24.786;2023-01-26T08:23:42;98491.91;;;2.48;100.00
7026;BME280;3554;42.132;24.786;2023-01-26T08:26:11;98445.00;;;2.30;100.00
7026;BME280;3554;42.132;24.786;2023-01-26T08:28:39;98408.75;;;2.34;100.00
7026;BME280;3554;42.132;24.786;2023-01-26T08:31:08;98351.78;;;2.42;100.00
7026;BME280;3554;42.132;24.786;2023-01-26T08:33:36;98293.84;;;2.52;100.00
7026;BME280;3554;42.132;24.786;2023-01-26T08:36:06;98257.13;;;2.41;100.00
7026;BME280;3554;42.132;24.786;2023-01-26T08:38:35;98204.13;;;2.58;100.00
7026;BME280;3554;42.132;24.786;2023-01-26T08:41:02;98156.84;;;2.58;100.00
7026;BME280;3554;42.132;24.786;2023-01-26T08:43:29;98130.00;;;2.63;100.00
7026;BME280;3554;42.132;24.786;2023-01-26T08:45:56;98097.28;;;2.62;100.00
7026;BME280;3554;42.132;24.786;2023-01-26T08:48:23;98084.25;;;2.67;100.00
7026;BME280;3554;42.132;24.786;2023-01-26T08:50:53;98016.84;;;2.76;100.00
7026;BME280;3554;42.132;24.786;2023-01-26T08:53:20;98019.81;;;2.62;100.00
7026;BME280;3554;42.132;24.786;2023-01-26T08:55:49;97998.31;;;2.62;100.00
7026;BME280;3554;42.132;24.786;2023-01-26T08:58:15;97956.47;;;2.52;100.00
7026;BME280;3554;42.132;24.786;2023-01-26T09:00:42;97940.81;;;2.57;100.00
7026;BME280;3554;42.132;24.786;2023-01-26T09:03:09;97912.50;;;2.54;100.00
7026;BME280;3554;42.132;24.786;2023-01-26T09:05:38;97866.47;;;2.66;100.00
7026;BME280;3554;42.132;24.786;2023-01-26T09:08:06;97824.72;;;2.54;100.00
7026;BME280;3554;42.132;24.786;2023-01-26T09:10:35;97813.78;;;2.47;100.00
7026;BME280;3554;42.132;24.786;2023-01-26T09:13:04;97764.22;;;2.61;100.00
7026;BME280;3554;42.132;24.786;2023-01-26T09:15:31;97742.72;;;2.60;100.00
7026;BME280;3554;42.132;24.786;2023-01-26T09:17:58;97712.66;;;2.59;100.00
7026;BME280;3554;42.132;24.786;2023-01-26T09:20:24;97664.03;;;2.47;100.00
7026;BME280;3554;42.132;24.786;2023-01-26T09:22:51;97658.53;;;2.33;100.00
7026;BME280;3554;42.132;24.786;2023-01-26T09:25:19;97624.19;;;2.31;100.00
7026;BME280;3554;42.132;24.786;2023-01-26T09:27:45;97577.41;;;2.40;100.00
7026;BME280;3554;42.132;24.786;2023-01-26T09:30:14;97508.63;;;2.61;100.00
7026;BME280;3554;42.132;24.786;2023-01-26T09:32:41;97451.31;;;2.51;100.00
7026;BME280;3554;42.132;24.786;2023-01-26T09:35:08;97413.03;;;2.62;100.00
7026;BME280;3554;42.132;24.786;2023-01-26T09:37:36;97373.41;;;2.63;100.00
7026;BME280;3554;42.132;24.786;2023-01-26T09:40:03;97341.72;;;2.60;100.00
7026;BME280;3554;42.132;24.786;2023-01-26T09:42:40;97267.88;;;2.76;100.00
7026;BME280;3554;42.132;24.786;2023-01-26T09:45:22;97245.47;;;2.95;100.00
7026;BME280;3554;42.132;24.786;2023-01-26T09:48:03;97177.66;;;2.53;100.00
7026;BME280;3554;42.132;24.786;2023-01-26T09:50:37;97195.00;;;2.88;100.00
7026;BME280;3554;42.132;24.786;2023-01-26T09:53:11;97190.59;;;2.90;100.00
7026;BME280;3554;42.132;24.786;2023-01-26T09:55:40;97204.88;;;2.60;100.00
7026;BME280;3554;42.132;24.786;2023-01-26T09:58:12;97178.47;;;2.53;100.00
7026;BME280;3554;42.132;24.786;2023-01-26T10:00:44;97166.16;;;2.60;100.00
7026;BME280;3554;42.132;24.786;2023-01-26T10:03:19;97146.13;;;2.65;100.00
7026;BME280;3554;42.132;24.786;2023-01-26T10:05:52;97063.03;;;2.38;100.00
7026;BME280;3554;42.132;24.786;2023-01-26T10:08:20;97100.75;;;2.78;100.00
7026;BME280;3554;42.132;24.786;2023-01-26T10:10:52;97077.59;;;2.76;100.00
7026;BME280;3554;42.132;24.786;2023-01-26T10:13:20;97073.19;;;2.97;100.00
7026;BME280;3554;42.132;24.786;2023-01-26T10:15:51;97062.47;;;3.04;100.00
7026;BME280;3554;42.132;24.786;2023-01-26T10:18:24;97079.56;;;3.07;100.00
7026;BME280;3554;42.132;24.786;2023-01-26T10:20:54;97081.81;;;2.96;100.00
7026;BME280;3554;42.132;24.786;2023-01-26T10:23:23;97061.50;;;3.07;100.00
7026;BME280;3554;42.132;24.786;2023-01-26T10:25:53;97074.38;;;3.25;100.00
7026;BME280;3554;42.132;24.786;2023-01-26T10:28:26;97027.72;;;2.93;100.00
7026;BME280;3554;42.132;24.786;2023-01-26T10:30:55;97102.38;;;3.16;100.00
7026;BME280;3554;42.132;24.786;2023-01-26T10:33:25;97103.75;;;3.06;100.00
7026;BME280;3554;42.132;24.786;2023-01-26T10:35:53;97112.44;;;3.22;100.00
7026;BME280;3554;42.132;24.786;2023-01-26T10:38:37;97106.88;;;3.12;100.00
7026;BME280;3554;42.132;24.786;2023-01-26T10:41:05;97121.69;;;3.09;100.00
7026;BME280;3554;42.132;24.786;2023-01-26T10:43:36;97127.19;;;3.20;100.00
7026;BME280;3554;42.132;24.786;2023-01-26T10:46:22;97101.66;;;3.31;100.00
7026;BME280;3554;42.132;24.786;2023-01-26T10:48:51;97115.97;;;3.55;100.00
7026;BME280;3554;42.132;24.786;2023-01-26T10:51:23;97124.66;;;3.71;100.00
7026;BME280;3554;42.132;24.786;2023-01-26T10:53:55;97126.78;;;3.80;100.00
7026;BME280;3554;42.132;24.786;2023-01-26T10:56:42;97157.06;;;3.78;100.00
7026;BME280;3554;42.132;24.786;2023-01-26T10:59:09;97193.28;;;3.78;100.00
7026;BME280;3554;42.132;24.786;2023-01-26T11:01:52;97216.28;;;3.84;100.00
7026;BME280;3554;42.132;24.786;2023-01-26T11:04:20;97250.34;;;3.75;100.00
7026;BME280;3554;42.132;24.786;2023-01-26T11:06:47;97266.28;;;3.66;100.00
7026;BME280;3554;42.132;24.786;2023-01-26T11:09:18;97290.34;;;3.68;100.00
7026;BME280;3554;42.132;24.786;2023-01-26T11:11:59;97296.13;;;3.73;100.00
7026;BME280;3554;42.132;24.786;2023-01-26T11:14:28;97303.97;;;3.72;100.00
7026;BME280;3554;42.132;24.786;2023-01-26T11:17:00;97342.38;;;3.79;100.00
7026;BME280;3554;42.132;24.786;2023-01-26T11:19:40;97351.63;;;3.85;100.00
7026;BME280;3554;42.132;24.786;2023-01-26T11:22:11;97381.56;;;3.72;100.00
7026;BME280;3554;42.132;24.786;2023-01-26T11:24:48;97386.16;;;3.65;100.00
7026;BME280;3554;42.132;24.786;2023-01-26T11:27:34;97409.31;;;3.68;100.00
7026;BME280;3554;42.132;24.786;2023-01-26T11:30:25;97401.41;;;3.71;100.00
7026;BME280;3554;42.132;24.786;2023-01-26T11:33:00;97399.16;;;3.64;100.00
7026;BME280;3554;42.132;24.786;2023-01-26T11:35:38;97334.50;;;3.45;100.00
7026;BME280;3554;42.132;24.786;2023-01-26T11:38:17;97370.66;;;3.84;100.00
7026;BME280;3554;42.132;24.786;2023-01-26T11:40:53;97363.34;;;3.92;100.00
7026;BME280;3554;42.132;24.786;2023-01-26T11:46:25;97341.19;;;3.86;100.00
7026;BME280;3554;42.132;24.786;2023-01-26T11:49:02;97408.13;;;4.12;100.00
7026;BME280;3554;42.132;24.786;2023-01-26T11:51:46;97425.88;;;4.01;100.00
7026;BME280;3554;42.132;24.786;2023-01-26T11:54:33;97451.75;;;4.01;100.00
7026;BME280;3554;42.132;24.786;2023-01-26T11:57:10;97470.56;;;4.05;100.00
7026;BME280;3554;42.132;24.786;2023-01-26T11:59:44;97460.84;;;4.10;100.00
7026;BME280;3554;42.132;24.786;2023-01-26T12:02:25;97452.38;;;4.06;100.00
7026;BME280;3554;42.132;24.786;2023-01-26T12:04:57;97427.41;;;3.87;100.00
7026;BME280;3554;42.132;24.786;2023-01-26T12:07:29;97469.38;;;4.12;100.00
7026;BME280;3554;42.132;24.786;2023-01-26T12:10:16;97466.25;;;4.05;100.00
7026;BME280;3554;42.132;24.786;2023-01-26T12:12:49;97467.13;;;4.04;100.00
7026;BME280;3554;42.132;24.786;2023-01-26T12:15:21;97487.16;;;4.19;100.00
7026;BME280;3554;42.132;24.786;2023-01-26T12:17:57;97500.19;;;4.18;100.00
7026;BME280;3554;42.132;24.786;2023-01-26T12:20:33;97516.81;;;4.12;100.00
7026;BME280;3554;42.132;24.786;2023-01-26T12:23:03;97520.09;;;3.97;100.00
7026;BME280;3554;42.132;24.786;2023-01-26T12:25:33;97537.69;;;3.89;100.00
7026;BME280;3554;42.132;24.786;2023-01-26T12:28:10;97523.84;;;3.90;100.00
7026;BME280;3554;42.132;24.786;2023-01-26T12:30:42;97528.31;;;3.87;100.00
7026;BME280;3554;42.132;24.786;2023-01-26T12:33:13;97494.19;;;3.79;100.00
7026;BME280;3554;42.132;24.786;2023-01-26T12:35:49;97505.09;;;3.85;100.00
7026;BME280;3554;42.132;24.786;2023-01-26T12:38:30;97477.34;;;3.89;100.00
7026;BME280;3554;42.132;24.786;2023-01-26T12:41:10;97482.25;;;3.95;100.00
7026;BME280;3554;42.132;24.786;2023-01-26T12:43:51;97465.97;;;3.93;100.00
7026;BME280;3554;42.132;24.786;2023-01-26T12:46:22;97463.94;;;3.99;100.00
7026;BME280;3554;42.132;24.786;2023-01-26T12:48:52;97459.59;;;4.00;100.00
7026;BME280;3554;42.132;24.786;2023-01-26T12:51:26;97454.56;;;3.97;100.00
7026;BME280;3554;42.132;24.786;2023-01-26T12:53:57;97449.41;;;3.97;100.00
7026;BME280;3554;42.132;24.786;2023-01-26T12:56:30;97459.94;;;3.74;100.00
7026;BME280;3554;42.132;24.786;2023-01-26T12:59:12;97452.97;;;3.56;100.00
7026;BME280;3554;42.132;24.786;2023-01-26T13:01:41;97431.28;;;3.58;100.00
7026;BME280;3554;42.132;24.786;2023-01-26T13:04:09;97413.97;;;3.60;100.00
7026;BME280;3554;42.132;24.786;2023-01-26T13:06:39;97407.00;;;3.42;100.00
7026;BME280;3554;42.132;24.786;2023-01-26T13:09:18;97383.69;;;3.44;100.00
7026;BME280;3554;42.132;24.786;2023-01-26T13:11:48;97343.22;;;3.43;100.00
7026;BME280;3554;42.132;24.786;2023-01-26T13:14:35;97326.47;;;3.51;100.00
7026;BME280;3554;42.132;24.786;2023-01-26T13:20:24;97270.91;;;3.41;100.00
7026;BME280;3554;42.132;24.786;2023-01-26T13:22:53;97265.53;;;3.46;100.00
7026;BME280;3554;42.132;24.786;2023-01-26T13:25:27;97237.94;;;3.46;100.00
7026;BME280;3554;42.132;24.786;2023-01-26T13:27:56;97065.97;;;2.49;100.00
7026;BME280;3554;42.132;24.786;2023-01-26T13:30:42;97204.56;;;3.42;100.00
7026;BME280;3554;42.132;24.786;2023-01-26T13:33:21;97173.41;;;3.26;100.00
7026;BME280;3554;42.132;24.786;2023-01-26T13:35:51;97152.28;;;3.35;100.00
7026;BME280;3554;42.132;24.786;2023-01-26T13:38:27;97159.16;;;3.17;100.00
7026;BME280;3554;42.132;24.786;2023-01-26T13:40:58;97140.03;;;3.21;100.00